Monroe County Airport
KBMG : now visible

Airfield :











YOU CAN JOIN US ON...

 
LOGIN :

Register | Disclaimer

   EN    FR    IT 

 









Legend :    VFR   Marginal VFR   IFR   Intensive IFR   Very Intensive IFR
Visi :
Ceiling :
>= 8 km
>= 3000ft
5 to 8 km
1000 to 3000 ft
1500m to 5 km
500 to 1000 ft
800 to 1500m
200 to 500 ft
< 800m
< 200 ft
Symbols :   Thunderstorms  Fog  Heavy snow  Heavy precipitations  Wind > 20 kt






- Airport Elevation : 846 ft
- IATA code : BMG


KBMG - Monroe County

CURRENT METAR :
  • 110418Z AUTO 19009KT 10SM -RA BKN004 21/19 A2999 RMK AO2 P0000 T02060194

EXPIRED METARs :
  • 110409Z AUTO 19007KT 10SM -RA SCT004 21/19 A2999 RMK AO2 P0000 T02060194
  • 110353Z AUTO 12005KT 10SM -RA FEW120 21/19 A2999 RMK AO2 PRESFR SLP147 P0011 T02060194
  • 110253Z AUTO 22006KT 6SM RA BR SCT075 OVC100 21/19 A3005 RMK AO2 LTG DSNT S AND SW TSE04 SLP168 P0013 60180 T02110194 51034
  • 110233Z AUTO 19004KT 7SM RA BKN100 BKN110 21/19 A3004 RMK AO2 LTG DSNT S TSE04 PRESRR P0007 T02110189
  • 110218Z AUTO 05006KT 10SM VCTS -RA BKN095 OVC110 21/19 A3002 RMK AO2 LTG DSNT ALQDS TSE04 P0004 T02110189
  • 110210Z AUTO 03007KT 9SM -RA FEW075 BKN100 OVC120 21/19 A3001 RMK AO2 LTG DSNT ALQDS TSE04 P0003 T02110189
  • 110153Z AUTO 04009G18KT 8SM -TSRA FEW075 SCT095 BKN110 21/19 A3000 RMK AO2 LTG DSNT ALQDS TSE15B47 SLP153 P0006 T02110189

TAF KBMG
Valid from the 11 at 00:00 until the 12 at 00:00 UTC


102320Z 1100/1124 26006KT 6SM -SHRA VCTS BKN045CB
TEMPO 1100/1102 VRB15G40KT 2SM TSRA OVC020CB
FM110300 35012KT 6SM -SHRA VCTS SCT025CB OVC080
FM110500 20005KT P6SM VCTS SCT030CB OVC080
FM111300 VRB04KT P6SM VCSH BKN035
FM111800 VRB04KT P6SM BKN035 AMD LTD TO CLD VIS AND WIND 1101/1113
KZID FIR / North America



MET'MAP, your aeronautical weather chart ! - Copyright ORBIFLY December 2007 - Disclaimer

ORBIFLY MET'MAP TEAM :

Programming & Development : Alexandra Zaïnal
Concept & original design : Baudouin d'Aumeries
Assistance for programming : Marc-Olivier Méhu
Technical & hardware support : Manuel Goepfert

Contact : metmap@orbifly.com




SOURCES & CREDITS :

   NOAA       Earth
Advisory